createdAt,value
2023-02-12T00:03:51.539Z,3.73
2023-02-12T00:08:49.804Z,3.51
2023-02-12T00:13:46.778Z,3.42
2023-02-12T00:18:45.165Z,3.31
2023-02-12T00:23:42.309Z,3.22
2023-02-12T00:28:39.266Z,3.12
2023-02-12T00:33:36.791Z,3.01
2023-02-12T00:38:34.495Z,2.92
2023-02-12T00:43:31.893Z,2.82
2023-02-12T00:48:30.831Z,2.81
2023-02-12T00:53:28.725Z,2.85
2023-02-12T00:58:26.619Z,2.19
2023-02-12T01:03:23.812Z,2.94
2023-02-12T01:08:22.035Z,2.90
2023-02-12T01:13:20.304Z,3.10
2023-02-12T01:18:18.497Z,3.10
2023-02-12T01:23:15.242Z,3.19
2023-02-12T01:28:12.495Z,3.32
2023-02-12T01:33:09.430Z,3.19
2023-02-12T01:38:06.930Z,3.28
2023-02-12T01:43:03.932Z,3.17
2023-02-12T01:48:01.272Z,3.49
2023-02-12T01:52:59.173Z,3.24
2023-02-12T01:57:56.804Z,3.18
2023-02-12T02:02:56.545Z,3.40
2023-02-12T02:07:53.993Z,3.49
2023-02-12T02:13:09.243Z,3.49
2023-02-12T02:18:13.608Z,3.38
2023-02-12T02:23:39.397Z,3.71
2023-02-12T02:29:10.129Z,3.69
2023-02-12T02:34:17.957Z,3.53
2023-02-12T02:39:23.149Z,3.62
2023-02-12T02:44:26.124Z,3.51
2023-02-12T02:49:27.470Z,3.64
2023-02-12T02:54:31.066Z,3.60
2023-02-12T02:59:33.549Z,3.66
2023-02-12T03:04:35.997Z,3.63
2023-02-12T03:09:37.758Z,3.60
2023-02-12T03:14:39.330Z,3.18
2023-02-12T03:19:40.789Z,3.33
2023-02-12T03:24:42.849Z,3.51
2023-02-12T03:29:39.894Z,3.52
2023-02-12T03:34:47.576Z,3.50
2023-02-12T03:39:54.310Z,3.25
2023-02-12T03:44:54.110Z,3.31
2023-02-12T03:49:59.858Z,3.06
2023-02-12T03:54:57.273Z,3.16
2023-02-12T03:59:55.388Z,3.45
2023-02-12T04:04:52.933Z,3.32
2023-02-12T04:09:49.804Z,3.17
2023-02-12T04:14:52.694Z,3.57
2023-02-12T04:20:02.488Z,3.54
2023-02-12T04:25:10.413Z,3.62
2023-02-12T04:30:18.856Z,3.26
2023-02-12T04:35:22.047Z,3.56
2023-02-12T04:40:20.452Z,3.34
2023-02-12T04:45:22.598Z,3.45
2023-02-12T04:50:20.412Z,3.50
2023-02-12T04:55:17.439Z,3.33
2023-02-12T05:00:16.086Z,3.56
2023-02-12T05:05:12.956Z,3.45
2023-02-12T05:10:11.249Z,3.58
2023-02-12T05:15:09.104Z,3.66
2023-02-12T05:20:07.026Z,3.65
2023-02-12T05:25:04.281Z,3.69
2023-02-12T05:30:02.363Z,3.72
2023-02-12T05:34:59.379Z,3.71
2023-02-12T05:39:56.402Z,3.75
2023-02-12T05:44:53.347Z,3.35
2023-02-12T05:49:50.873Z,3.73
2023-02-12T05:54:49.759Z,3.72
2023-02-12T05:59:46.541Z,3.72
2023-02-12T06:04:43.351Z,3.87
2023-02-12T06:09:40.833Z,3.75
2023-02-12T06:14:37.570Z,4.02
2023-02-12T06:19:34.389Z,4.01
2023-02-12T06:24:32.719Z,3.81
2023-02-12T06:29:32.914Z,4.19
2023-02-12T06:34:29.833Z,4.28
2023-02-12T06:39:26.648Z,4.49
2023-02-12T06:44:23.453Z,4.61
2023-02-12T06:49:20.982Z,4.39
2023-02-12T06:54:18.145Z,4.92
2023-02-12T06:59:16.794Z,4.89
2023-02-12T07:04:14.127Z,5.09
2023-02-12T07:09:11.673Z,5.52
2023-02-12T07:14:13.270Z,5.41
2023-02-12T07:19:14.937Z,5.51
2023-02-12T07:24:13.377Z,5.48
2023-02-12T07:29:12.154Z,5.98
2023-02-12T07:34:10.290Z,6.02
2023-02-12T07:39:07.029Z,6.02
2023-02-12T07:44:09.534Z,6.48
2023-02-12T07:49:10.125Z,6.29
2023-02-12T07:54:06.990Z,6.64
2023-02-12T07:59:06.816Z,6.45
2023-02-12T08:04:06.457Z,6.91
2023-02-12T08:09:06.769Z,7.03
2023-02-12T08:14:05.134Z,6.98
2023-02-12T08:19:15.496Z,7.06
2023-02-12T08:24:13.634Z,7.87
2023-02-12T08:29:13.994Z,8.12
2023-02-12T08:34:18.392Z,8.21
2023-02-12T08:39:15.594Z,8.48
2023-02-12T08:44:13.783Z,8.47
2023-02-12T08:49:13.773Z,8.69
2023-02-12T08:54:12.181Z,8.67
2023-02-12T08:59:10.371Z,8.71
2023-02-12T09:04:08.634Z,8.46
2023-02-12T09:09:06.624Z,8.34
2023-02-12T09:14:05.815Z,8.36
2023-02-12T09:19:03.006Z,8.20
2023-02-12T09:24:01.950Z,8.10
2023-02-12T09:28:58.990Z,7.98
2023-02-12T09:33:58.997Z,8.05
2023-02-12T09:38:56.882Z,7.99
2023-02-12T09:44:00.858Z,7.93
2023-02-12T09:49:08.850Z,7.62
2023-02-12T09:54:09.671Z,7.84
2023-02-12T09:59:11.404Z,7.80
2023-02-12T10:04:09.495Z,7.88
2023-02-12T10:09:23.020Z,7.83
2023-02-12T10:15:01.653Z,7.94
2023-02-12T10:20:28.688Z,8.08
2023-02-12T10:25:30.876Z,8.05
2023-02-12T10:30:39.939Z,7.83
2023-02-12T10:35:43.957Z,8.27
2023-02-12T10:40:49.555Z,8.35
2023-02-12T10:45:47.246Z,7.91
2023-02-12T10:50:52.137Z,8.15
2023-02-12T10:56:05.877Z,8.58
2023-02-12T11:01:16.772Z,8.52
2023-02-12T11:06:17.165Z,8.67
2023-02-12T11:11:21.138Z,8.69
2023-02-12T11:16:27.625Z,8.67
2023-02-12T11:21:27.665Z,8.63
2023-02-12T11:26:27.066Z,8.60
2023-02-12T11:31:26.359Z,8.50
2023-02-12T11:36:26.039Z,8.69
2023-02-12T11:41:35.584Z,8.78
2023-02-12T11:46:32.647Z,8.69
2023-02-12T11:51:32.339Z,8.28
2023-02-12T11:56:42.363Z,9.06
2023-02-12T12:01:41.213Z,8.89
2023-02-12T12:06:46.690Z,9.19
2023-02-12T12:11:53.402Z,9.33
2023-02-12T12:17:14.051Z,9.36
2023-02-12T12:22:18.723Z,9.76
2023-02-12T12:27:40.198Z,9.42
2023-02-12T12:32:41.463Z,9.16
2023-02-12T12:37:47.061Z,9.62
2023-02-12T12:43:02.148Z,9.57
2023-02-12T12:48:14.516Z,9.08
2023-02-12T12:53:21.101Z,9.50
2023-02-12T12:58:34.088Z,9.20
2023-02-12T13:04:01.769Z,9.32
2023-02-12T13:09:28.184Z,8.74
2023-02-12T13:14:42.145Z,8.95
2023-02-12T13:19:47.083Z,8.77
2023-02-12T13:24:49.958Z,8.72
2023-02-12T13:29:51.162Z,8.63
2023-02-12T13:34:50.068Z,8.46
2023-02-12T13:39:50.130Z,8.47
2023-02-12T13:44:58.400Z,8.64
2023-02-12T13:50:03.208Z,8.64
2023-02-12T13:55:21.626Z,8.73
2023-02-12T14:00:57.496Z,8.53
2023-02-12T14:06:11.052Z,8.40
2023-02-12T14:11:12.108Z,8.78
2023-02-12T14:16:39.309Z,8.52
2023-02-12T14:21:36.165Z,8.48
2023-02-12T14:26:38.088Z,8.43
2023-02-12T14:31:35.661Z,8.27
2023-02-12T14:36:40.927Z,8.08
2023-02-12T14:41:41.987Z,7.76
2023-02-12T14:46:49.680Z,7.61
2023-02-12T14:51:53.432Z,7.28
2023-02-12T14:56:51.368Z,7.16
2023-02-12T15:01:50.102Z,6.51
2023-02-12T15:06:53.562Z,6.74
2023-02-12T15:11:59.955Z,6.24
2023-02-12T15:17:03.481Z,6.34
2023-02-12T15:22:02.057Z,5.94
2023-02-12T15:27:08.113Z,5.83
2023-02-12T15:32:11.280Z,5.31
2023-02-12T15:37:09.511Z,5.24
2023-02-12T15:42:24.158Z,5.47
2023-02-12T15:47:25.109Z,4.90
2023-02-12T15:52:32.860Z,4.78
2023-02-12T15:57:31.833Z,4.17
2023-02-12T16:02:31.549Z,4.46
2023-02-12T16:07:33.277Z,3.80
2023-02-12T16:12:37.003Z,4.34
2023-02-12T16:17:35.931Z,4.38
2023-02-12T16:22:36.397Z,4.23
2023-02-12T16:27:34.963Z,4.27
2023-02-12T16:32:37.481Z,4.56
2023-02-12T16:37:44.652Z,4.60
2023-02-12T16:43:01.296Z,4.72
2023-02-12T16:48:03.425Z,4.91
2023-02-12T16:53:01.992Z,4.60
2023-02-12T16:58:00.277Z,5.12
2023-02-12T17:02:57.337Z,4.85
2023-02-12T17:07:56.365Z,4.93
2023-02-12T17:12:53.315Z,5.01
2023-02-12T17:17:53.352Z,5.22
2023-02-12T17:22:54.867Z,5.26
2023-02-12T17:27:51.995Z,5.17
2023-02-12T17:32:51.007Z,4.87
2023-02-12T17:37:48.895Z,5.19
2023-02-12T17:42:45.810Z,5.27
2023-02-12T17:47:42.633Z,5.17
2023-02-12T17:52:39.517Z,5.21
2023-02-12T17:57:37.730Z,5.03
2023-02-12T18:02:34.765Z,5.01
2023-02-12T18:07:32.694Z,5.12
2023-02-12T18:12:31.775Z,4.77
2023-02-12T18:17:31.263Z,5.21
2023-02-12T18:22:28.183Z,5.31
2023-02-12T18:27:30.782Z,4.90
2023-02-12T18:32:30.444Z,5.18
2023-02-12T18:37:28.142Z,5.14
2023-02-12T18:42:25.591Z,5.45
2023-02-12T18:47:22.440Z,5.00
2023-02-12T18:52:19.258Z,5.41
2023-02-12T18:57:16.991Z,5.34
2023-02-12T19:02:18.653Z,5.08
2023-02-12T19:07:15.683Z,5.21
2023-02-12T19:12:12.521Z,5.18
2023-02-12T19:17:10.290Z,5.23
2023-02-12T19:22:07.115Z,4.98
2023-02-12T19:27:04.148Z,5.30
2023-02-12T19:32:01.110Z,5.71
2023-02-12T19:36:58.764Z,5.21
2023-02-12T19:41:55.905Z,5.36
2023-02-12T19:46:54.277Z,5.46
2023-02-12T19:51:53.668Z,5.29
2023-02-12T19:56:52.198Z,5.62
2023-02-12T20:01:49.485Z,5.55
2023-02-12T20:06:46.751Z,5.18
2023-02-12T20:11:43.639Z,5.33
2023-02-12T20:16:43.994Z,5.18
2023-02-12T20:21:41.544Z,4.75
2023-02-12T20:26:38.514Z,4.86
2023-02-12T20:31:37.548Z,4.41
2023-02-12T20:36:37.075Z,4.27
2023-02-12T20:41:36.432Z,4.39
2023-02-12T20:46:35.528Z,4.26
2023-02-12T20:51:32.819Z,3.89
2023-02-12T20:56:34.773Z,3.98
2023-02-12T21:01:35.305Z,3.85
2023-02-12T21:06:32.950Z,3.76
2023-02-12T21:11:30.622Z,3.43
2023-02-12T21:16:29.702Z,3.52
2023-02-12T21:21:28.734Z,3.24
2023-02-12T21:26:27.249Z,3.30
2023-02-12T21:31:26.730Z,2.88
2023-02-12T21:36:25.485Z,3.54
2023-02-12T21:41:25.887Z,3.50
2023-02-12T21:46:23.021Z,3.44
2023-02-12T21:51:25.044Z,2.82
2023-02-12T21:56:22.516Z,3.12
2023-02-12T22:01:22.052Z,3.39
2023-02-12T22:06:21.688Z,3.13
2023-02-12T22:11:19.309Z,3.04
2023-02-12T22:16:18.230Z,3.15
2023-02-12T22:21:16.689Z,2.81
2023-02-12T22:26:15.995Z,2.81
2023-02-12T22:31:16.500Z,2.95
2023-02-12T22:36:13.343Z,3.22
2023-02-12T22:41:10.789Z,3.11
2023-02-12T22:46:10.634Z,3.12
2023-02-12T22:51:09.257Z,2.89
2023-02-12T22:56:07.840Z,2.70
2023-02-12T23:01:06.437Z,3.15
2023-02-12T23:06:06.144Z,2.61
2023-02-12T23:11:03.533Z,2.94
2023-02-12T23:16:00.544Z,2.62
2023-02-12T23:20:57.751Z,3.10
2023-02-12T23:25:55.924Z,2.99
2023-02-12T23:30:52.921Z,3.12
2023-02-12T23:35:52.304Z,2.85
2023-02-12T23:40:49.131Z,3.29
2023-02-12T23:45:46.613Z,3.38
2023-02-12T23:50:45.512Z,3.40
2023-02-12T23:55:42.296Z,3.28
